Munday, West Virginia
Current Conditions -  °F | °C
As of 11:53 PM on Monday 26 Jan 2015 (Local Time) from KPKB Reporting Station
Overcast Overcast  
Wind Chill: 17°   Ceiling: 1700
Heat Index: 23°   Visibility: 10mi
Dew Point: 17°   Wind: 5mph
Humidity: 78%   Direction: 300°WNW
Pressure: 29.93"   Gusts: NA
Location:  39°N, 81.2°W
Report Text: KPKB 270453Z AUTO 30004KT 10SM OVC017 M05/M08 A2993 RMK AO2 SLP145 T10501083 400281050
Loading
Personal Weather Stations






























Interactive Weather Map New forecast layout! Learn more

10-Day Weather Forecast

Advertisements
Track Severe Weather on mobile